createdAt,value
2018-01-27T00:01:47.638Z,24.92
2018-01-27T00:04:15.170Z,17.17
2018-01-27T00:06:43.183Z,22.75
2018-01-27T00:09:10.632Z,17.87
2018-01-27T00:11:38.132Z,15.40
2018-01-27T00:14:05.591Z,23.27
2018-01-27T00:16:33.029Z,34.30
2018-01-27T00:19:00.487Z,23.20
2018-01-27T00:21:27.955Z,25.90
2018-01-27T00:23:55.791Z,35.45
2018-01-27T00:26:23.299Z,26.30
2018-01-27T00:28:50.744Z,32.33
2018-01-27T00:31:18.239Z,22.42
2018-01-27T00:33:45.706Z,27.17
2018-01-27T00:36:13.185Z,26.45
2018-01-27T00:38:40.637Z,22.90
2018-01-27T00:41:08.110Z,21.90
2018-01-27T00:43:35.552Z,22.95
2018-01-27T00:46:03.012Z,16.85
2018-01-27T00:48:30.470Z,18.98
2018-01-27T00:50:57.925Z,16.30
2018-01-27T00:53:25.395Z,21.35
2018-01-27T00:55:52.849Z,20.95
2018-01-27T00:58:20.289Z,22.92
2018-01-27T01:00:47.742Z,26.50
2018-01-27T01:03:15.203Z,21.30
2018-01-27T01:05:42.658Z,19.12
2018-01-27T01:08:10.106Z,24.27
2018-01-27T01:10:37.552Z,21.27
2018-01-27T01:13:05.031Z,22.95
2018-01-27T01:15:32.477Z,25.80
2018-01-27T01:17:59.942Z,22.73
2018-01-27T01:20:27.402Z,24.00
2018-01-27T01:22:54.865Z,20.15
2018-01-27T01:25:23.111Z,19.65
2018-01-27T01:27:50.563Z,22.70
2018-01-27T01:30:18.815Z,17.15
2018-01-27T01:32:46.261Z,17.62
2018-01-27T01:35:13.712Z,20.40
2018-01-27T01:37:41.182Z,27.62
2018-01-27T01:40:08.648Z,18.90
2018-01-27T01:45:42.216Z,20.25
2018-01-27T01:48:09.712Z,18.52
2018-01-27T01:50:37.174Z,18.85
2018-01-27T01:53:04.643Z,19.50
2018-01-27T01:55:32.856Z,19.15
2018-01-27T01:58:00.318Z,18.37
2018-01-27T02:00:27.795Z,20.23
2018-01-27T02:02:55.250Z,19.35
2018-01-27T02:05:22.721Z,19.83
2018-01-27T02:07:50.949Z,19.73
2018-01-27T02:10:18.408Z,20.27
2018-01-27T02:12:45.873Z,21.10
2018-01-27T02:15:13.332Z,18.35
2018-01-27T02:17:40.809Z,20.58
2018-01-27T02:20:08.260Z,19.42
2018-01-27T02:22:35.713Z,21.05
2018-01-27T02:25:03.174Z,18.83
2018-01-27T02:27:31.399Z,28.00
2018-01-27T02:29:59.618Z,22.48
2018-01-27T02:32:27.070Z,19.35
2018-01-27T02:34:54.534Z,21.40
2018-01-27T02:37:21.999Z,27.10
2018-01-27T02:39:49.444Z,24.85
2018-01-27T02:42:16.901Z,29.60
2018-01-27T02:44:44.377Z,37.72
2018-01-27T02:47:11.866Z,24.80
2018-01-27T02:49:40.108Z,28.77
2018-01-27T02:52:07.554Z,27.15
2018-01-27T02:54:35.338Z,20.60
2018-01-27T02:57:03.590Z,19.33
2018-01-27T02:59:31.037Z,22.58
2018-01-27T03:01:58.499Z,16.95
2018-01-27T03:04:25.952Z,21.15
2018-01-27T03:06:53.400Z,19.45
2018-01-27T03:09:20.871Z,20.15
2018-01-27T03:11:48.326Z,21.85
2018-01-27T03:14:15.786Z,18.75
2018-01-27T03:16:43.255Z,26.05
2018-01-27T03:19:10.711Z,27.33
2018-01-27T03:21:38.173Z,17.48
2018-01-27T03:24:05.638Z,23.80
2018-01-27T03:26:33.096Z,22.67
2018-01-27T03:29:00.545Z,19.30
2018-01-27T03:31:27.996Z,21.52
2018-01-27T03:33:55.440Z,23.58
2018-01-27T03:36:22.900Z,21.42
2018-01-27T03:38:50.377Z,19.95
2018-01-27T03:41:18.221Z,20.12
2018-01-27T03:43:46.076Z,18.55
2018-01-27T03:46:13.535Z,21.77
2018-01-27T03:48:40.999Z,21.10
2018-01-27T03:51:08.466Z,37.97
2018-01-27T03:53:35.925Z,21.02
2018-01-27T03:56:03.392Z,19.00
2018-01-27T03:58:30.846Z,21.90
2018-01-27T04:00:58.300Z,30.52
2018-01-27T04:03:25.756Z,24.30
2018-01-27T04:05:53.220Z,19.95
2018-01-27T04:08:20.683Z,28.87
2018-01-27T04:10:48.156Z,23.15
2018-01-27T04:13:16.377Z,20.30
2018-01-27T04:15:43.840Z,24.70
2018-01-27T04:18:11.289Z,18.75
2018-01-27T04:20:38.756Z,20.15
2018-01-27T04:23:06.207Z,19.98
2018-01-27T04:25:33.668Z,20.20
2018-01-27T04:28:01.138Z,22.33
2018-01-27T04:30:28.599Z,21.12
2018-01-27T04:32:56.051Z,20.92
2018-01-27T04:35:23.516Z,26.92
2018-01-27T04:37:50.979Z,23.12
2018-01-27T04:40:18.440Z,21.85
2018-01-27T04:42:46.300Z,20.30
2018-01-27T04:45:14.155Z,19.17
2018-01-27T04:47:41.604Z,18.20
2018-01-27T04:50:09.066Z,24.95
2018-01-27T04:52:36.527Z,21.73
2018-01-27T04:55:03.990Z,18.40
2018-01-27T04:57:31.441Z,38.63
2018-01-27T04:59:58.959Z,22.17
2018-01-27T05:02:26.477Z,18.30
2018-01-27T05:04:54.699Z,20.77
2018-01-27T05:07:22.156Z,26.00
2018-01-27T05:09:49.618Z,23.45
2018-01-27T05:12:17.097Z,25.65
2018-01-27T05:14:44.562Z,23.45
2018-01-27T05:17:12.012Z,24.08
2018-01-27T05:19:39.460Z,19.10
2018-01-27T05:22:06.911Z,27.98
2018-01-27T05:24:34.374Z,18.23
2018-01-27T05:27:01.832Z,21.73
2018-01-27T05:29:29.297Z,26.95
2018-01-27T05:31:56.760Z,25.02
2018-01-27T05:34:24.222Z,25.62
2018-01-27T05:36:51.689Z,29.67
2018-01-27T05:39:19.134Z,30.88
2018-01-27T05:41:46.994Z,26.62
2018-01-27T05:44:14.458Z,35.80
2018-01-27T05:46:42.300Z,22.83
2018-01-27T05:49:09.766Z,27.42
2018-01-27T05:51:37.231Z,26.25
2018-01-27T05:54:04.671Z,27.10
2018-01-27T05:56:32.137Z,25.50
2018-01-27T05:58:59.585Z,25.75
2018-01-27T06:01:27.039Z,24.27
2018-01-27T06:03:54.487Z,26.95
2018-01-27T06:06:21.965Z,21.95
2018-01-27T06:08:49.434Z,22.30
2018-01-27T06:11:16.883Z,19.40
2018-01-27T06:13:44.341Z,20.58
2018-01-27T06:16:11.806Z,22.62
2018-01-27T06:18:39.272Z,19.58
2018-01-27T06:21:07.497Z,17.35
2018-01-27T06:23:34.940Z,21.48
2018-01-27T06:26:02.399Z,21.48
2018-01-27T06:28:29.865Z,18.70
2018-01-27T06:30:57.324Z,21.37
2018-01-27T06:33:24.773Z,21.45
2018-01-27T06:35:52.223Z,21.52
2018-01-27T06:38:19.686Z,21.98
2018-01-27T06:40:47.134Z,19.12
2018-01-27T06:43:14.592Z,18.05
2018-01-27T06:45:42.064Z,22.25
2018-01-27T06:48:09.522Z,17.70
2018-01-27T06:50:36.973Z,21.58
2018-01-27T06:53:04.440Z,19.55
2018-01-27T06:55:31.908Z,21.42
2018-01-27T06:57:59.367Z,27.45
2018-01-27T07:00:26.817Z,28.23
2018-01-27T07:02:54.268Z,21.87
2018-01-27T07:05:21.722Z,27.58
2018-01-27T07:07:49.183Z,19.98
2018-01-27T07:10:16.625Z,26.80
2018-01-27T07:12:44.082Z,26.60
2018-01-27T07:15:11.541Z,22.85
2018-01-27T07:17:38.992Z,25.77
2018-01-27T07:20:06.459Z,21.60
2018-01-27T07:22:33.917Z,30.98
2018-01-27T07:25:01.375Z,30.80
2018-01-27T07:27:28.829Z,25.88
2018-01-27T07:29:56.277Z,22.73
2018-01-27T07:32:23.746Z,24.10
2018-01-27T07:34:51.204Z,27.30
2018-01-27T07:37:18.663Z,30.02
2018-01-27T07:39:46.117Z,30.20
2018-01-27T07:42:13.582Z,28.83
2018-01-27T07:44:41.804Z,23.70
2018-01-27T07:47:09.646Z,22.92
2018-01-27T07:49:37.104Z,29.08
2018-01-27T07:52:05.320Z,27.52
2018-01-27T07:54:32.798Z,21.20
2018-01-27T07:57:00.270Z,24.58
2018-01-27T07:59:27.720Z,24.25
2018-01-27T08:01:55.190Z,22.73
2018-01-27T08:04:22.658Z,21.70
2018-01-27T08:06:50.112Z,23.08
2018-01-27T08:09:17.569Z,20.88
2018-01-27T08:11:45.025Z,18.62
2018-01-27T08:14:12.478Z,21.35
2018-01-27T08:16:39.924Z,22.90
2018-01-27T08:19:07.394Z,18.37
2018-01-27T08:21:34.866Z,19.92
2018-01-27T08:24:03.095Z,24.75
2018-01-27T08:26:30.558Z,21.92
2018-01-27T08:28:58.028Z,30.88
2018-01-27T08:31:25.499Z,18.67
2018-01-27T08:33:52.958Z,17.70
2018-01-27T08:36:20.407Z,20.85
2018-01-27T08:38:47.888Z,29.42
2018-01-27T08:41:16.122Z,31.17
2018-01-27T08:43:43.588Z,31.60
2018-01-27T08:46:11.055Z,33.83
2018-01-27T08:48:40.023Z,33.15
2018-01-27T08:51:07.485Z,33.28
2018-01-27T08:53:34.953Z,31.42
2018-01-27T08:56:02.422Z,52.38
2018-01-27T08:58:29.886Z,31.45
2018-01-27T09:00:58.116Z,30.65
2018-01-27T09:03:25.607Z,46.58
2018-01-27T09:05:53.081Z,35.22
2018-01-27T09:08:21.305Z,27.35
2018-01-27T09:10:48.775Z,27.42
2018-01-27T09:13:16.245Z,28.38
2018-01-27T09:15:43.721Z,37.25
2018-01-27T09:18:11.961Z,58.38
2018-01-27T09:20:39.421Z,75.10
2018-01-27T09:23:06.894Z,54.08
2018-01-27T09:25:34.349Z,66.70
2018-01-27T09:28:01.811Z,68.25
2018-01-27T09:30:29.272Z,49.08
2018-01-27T09:32:57.510Z,35.10
2018-01-27T09:35:25.026Z,36.88
2018-01-27T09:37:52.494Z,33.67
2018-01-27T09:40:23.645Z,45.60
2018-01-27T09:42:51.138Z,50.92
2018-01-27T09:45:18.597Z,44.60
2018-01-27T09:47:46.115Z,39.00
2018-01-27T09:50:13.940Z,56.22
2018-01-27T09:52:43.319Z,42.75
2018-01-27T09:55:10.772Z,35.05
2018-01-27T09:57:38.232Z,36.20
2018-01-27T10:00:05.697Z,40.92
2018-01-27T10:02:33.179Z,39.20
2018-01-27T10:05:01.411Z,33.50
2018-01-27T10:07:28.869Z,331.53
2018-01-27T10:09:56.317Z,32.20
2018-01-27T10:12:23.776Z,38.90
2018-01-27T10:14:51.251Z,34.00
2018-01-27T10:17:18.712Z,35.80
2018-01-27T10:19:46.931Z,39.37
2018-01-27T10:22:14.406Z,24.60
2018-01-27T10:24:41.864Z,20.67
2018-01-27T10:27:09.332Z,22.93
2018-01-27T10:29:36.792Z,65.97
2018-01-27T10:32:04.286Z,108.00
2018-01-27T10:34:31.742Z,45.77
2018-01-27T10:36:59.210Z,31.30
2018-01-27T10:39:26.666Z,30.37
2018-01-27T10:41:54.127Z,27.10
2018-01-27T10:44:22.352Z,27.47
2018-01-27T10:46:53.582Z,36.90
2018-01-27T10:49:21.063Z,48.93
2018-01-27T10:51:48.536Z,34.27
2018-01-27T10:54:16.385Z,28.40
2018-01-27T10:56:43.891Z,22.07
2018-01-27T10:59:11.382Z,24.07
2018-01-27T11:01:38.849Z,23.77
2018-01-27T11:04:06.316Z,22.13
2018-01-27T11:06:33.928Z,30.80
2018-01-27T11:09:02.154Z,21.00
2018-01-27T11:11:29.620Z,41.90
2018-01-27T11:13:57.297Z,33.83
2018-01-27T11:16:39.652Z,25.50
2018-01-27T11:19:07.138Z,19.93
2018-01-27T11:21:35.364Z,22.77
2018-01-27T11:24:02.822Z,21.27
2018-01-27T11:26:30.279Z,16.40
2018-01-27T11:28:57.731Z,21.93
2018-01-27T11:31:25.204Z,28.53
2018-01-27T11:33:52.659Z,19.40
2018-01-27T11:36:20.105Z,23.47
2018-01-27T11:38:47.585Z,21.60
2018-01-27T11:41:15.048Z,26.00
2018-01-27T11:43:42.495Z,21.50
2018-01-27T11:46:10.725Z,27.17
2018-01-27T11:48:38.944Z,27.20
2018-01-27T11:51:06.397Z,28.10
2018-01-27T11:53:33.863Z,22.40
2018-01-27T11:56:01.340Z,23.70
2018-01-27T11:58:28.800Z,23.50
2018-01-27T12:00:56.660Z,21.10
2018-01-27T12:03:24.130Z,24.67
2018-01-27T12:05:51.610Z,27.60
2018-01-27T12:08:19.828Z,27.63
2018-01-27T12:10:47.345Z,38.83
2018-01-27T12:13:14.779Z,25.30
2018-01-27T12:15:42.253Z,26.83
2018-01-27T12:18:09.713Z,24.13
2018-01-27T12:20:37.178Z,22.93
2018-01-27T12:23:05.634Z,21.23
2018-01-27T12:25:33.160Z,38.33
2018-01-27T12:28:00.616Z,20.43
2018-01-27T12:30:28.153Z,21.57
2018-01-27T12:32:55.630Z,20.23
2018-01-27T12:35:23.099Z,23.30
2018-01-27T12:37:51.362Z,20.77
2018-01-27T12:40:18.829Z,22.30
2018-01-27T12:42:46.569Z,16.70
2018-01-27T12:45:14.034Z,20.03
2018-01-27T12:47:41.498Z,15.27
2018-01-27T12:50:08.966Z,15.83
2018-01-27T12:52:36.420Z,16.80
2018-01-27T12:55:03.940Z,24.93
2018-01-27T12:57:31.420Z,16.93
2018-01-27T12:59:59.274Z,15.47
2018-01-27T13:02:26.750Z,14.50
2018-01-27T13:04:54.235Z,15.43
2018-01-27T13:07:21.695Z,15.30
2018-01-27T13:09:49.165Z,13.93
2018-01-27T13:12:16.620Z,15.37
2018-01-27T13:14:44.080Z,14.30
2018-01-27T13:17:11.533Z,17.97
2018-01-27T13:19:39.783Z,16.17
2018-01-27T13:22:07.285Z,12.20
2018-01-27T13:24:35.562Z,13.10
2018-01-27T13:27:03.785Z,13.33
2018-01-27T13:29:31.283Z,18.67
2018-01-27T13:31:58.725Z,9.80
2018-01-27T13:34:26.172Z,10.83
2018-01-27T13:36:53.627Z,8.80
2018-01-27T13:39:21.088Z,12.57
2018-01-27T13:41:48.532Z,9.43
2018-01-27T13:44:15.996Z,10.50
2018-01-27T13:46:43.482Z,14.53
2018-01-27T13:49:11.710Z,10.53
2018-01-27T13:51:39.157Z,8.87
2018-01-27T13:54:06.608Z,7.23
2018-01-27T13:56:34.078Z,8.90
2018-01-27T13:59:02.334Z,4.93
2018-01-27T14:01:29.777Z,6.17
2018-01-27T14:03:57.621Z,10.93
2018-01-27T14:06:25.847Z,13.00
2018-01-27T14:08:53.298Z,11.27
2018-01-27T14:11:20.765Z,8.50
2018-01-27T14:13:48.222Z,9.93
2018-01-27T14:16:15.713Z,9.60
2018-01-27T14:18:43.144Z,10.43
2018-01-27T14:21:10.592Z,7.80
2018-01-27T14:23:38.039Z,9.50
2018-01-27T14:26:05.507Z,8.80
2018-01-27T14:28:32.966Z,8.13
2018-01-27T14:31:00.492Z,12.23
2018-01-27T14:33:27.937Z,13.60
2018-01-27T14:35:55.404Z,9.93
2018-01-27T14:38:22.870Z,12.20
2018-01-27T14:40:50.343Z,18.00
2018-01-27T14:43:17.910Z,12.47
2018-01-27T14:45:45.403Z,22.07
2018-01-27T14:48:12.867Z,17.07
2018-01-27T14:50:41.087Z,15.00
2018-01-27T14:53:08.572Z,17.40
2018-01-27T14:55:36.052Z,15.03
2018-01-27T14:58:04.279Z,14.17
2018-01-27T15:00:37.673Z,18.87
2018-01-27T15:03:05.532Z,18.50
2018-01-27T15:05:33.003Z,16.97
2018-01-27T15:08:00.464Z,19.97
2018-01-27T15:10:27.954Z,14.43
2018-01-27T15:12:56.190Z,16.10
2018-01-27T15:15:23.694Z,15.60
2018-01-27T15:17:51.612Z,20.27
2018-01-27T15:20:19.134Z,14.80
2018-01-27T15:22:46.527Z,16.53
2018-01-27T15:25:13.996Z,17.27
2018-01-27T15:27:41.470Z,18.00
2018-01-27T15:30:08.953Z,17.83
2018-01-27T15:32:37.211Z,19.97
2018-01-27T15:35:04.722Z,16.70
2018-01-27T15:37:32.210Z,15.60
2018-01-27T15:39:59.723Z,17.07
2018-01-27T15:42:27.206Z,17.20
2018-01-27T15:44:54.645Z,21.00
2018-01-27T15:47:22.097Z,18.83
2018-01-27T15:49:49.594Z,17.33
2018-01-27T15:52:17.053Z,39.67
2018-01-27T15:54:44.892Z,24.27
2018-01-27T15:57:13.145Z,30.90
2018-01-27T15:59:40.650Z,33.47
2018-01-27T16:02:08.977Z,38.67
2018-01-27T16:04:36.442Z,31.97
2018-01-27T16:07:03.891Z,29.40
2018-01-27T16:09:31.415Z,36.80
2018-01-27T16:11:58.927Z,33.50
2018-01-27T16:14:26.364Z,37.73
2018-01-27T16:16:53.859Z,37.43
2018-01-27T16:19:21.322Z,47.80
2018-01-27T16:21:48.769Z,42.53
2018-01-27T16:24:16.219Z,158.33
2018-01-27T16:26:43.682Z,49.30
2018-01-27T16:29:11.194Z,43.60
2018-01-27T16:31:38.646Z,35.73
2018-01-27T16:34:06.151Z,38.57
2018-01-27T16:36:33.605Z,34.93
2018-01-27T16:39:01.110Z,33.97
2018-01-27T16:41:29.329Z,34.80
2018-01-27T16:43:56.836Z,30.00
2018-01-27T16:46:24.289Z,41.20
2018-01-27T16:48:51.778Z,36.97
2018-01-27T16:51:19.277Z,40.60
2018-01-27T16:53:46.728Z,37.27
2018-01-27T16:56:14.200Z,62.33
2018-01-27T16:58:41.663Z,74.80
2018-01-27T17:01:09.131Z,59.73
2018-01-27T17:03:36.599Z,124.20
2018-01-27T17:06:04.884Z,119.97
2018-01-27T17:08:33.130Z,104.57
2018-01-27T17:11:00.621Z,78.10
2018-01-27T17:13:28.897Z,46.70
2018-01-27T17:15:56.346Z,47.70
2018-01-27T17:18:24.693Z,45.57
2018-01-27T17:20:52.183Z,60.27
2018-01-27T17:23:20.408Z,62.90
2018-01-27T17:25:47.916Z,70.93
2018-01-27T17:28:16.172Z,67.33
2018-01-27T17:30:43.664Z,61.37
2018-01-27T17:33:11.876Z,53.23
2018-01-27T17:35:39.357Z,61.43
2018-01-27T17:38:06.885Z,62.10
2018-01-27T17:40:34.377Z,70.50
2018-01-27T17:43:01.831Z,71.50
2018-01-27T17:45:29.289Z,76.33
2018-01-27T17:47:56.732Z,66.93
2018-01-27T17:50:24.188Z,74.13
2018-01-27T17:52:51.717Z,58.60
2018-01-27T17:55:19.206Z,51.70
2018-01-27T17:57:46.719Z,41.93
2018-01-27T18:00:14.162Z,52.13
2018-01-27T18:02:41.610Z,44.30
2018-01-27T18:05:09.059Z,59.07
2018-01-27T18:07:37.339Z,45.43
2018-01-27T18:10:05.652Z,43.80
2018-01-27T18:12:33.071Z,42.63
2018-01-27T18:15:01.339Z,47.90
2018-01-27T18:17:28.775Z,43.83
2018-01-27T18:19:56.302Z,54.50
2018-01-27T18:22:23.767Z,108.27
2018-01-27T18:24:51.321Z,72.30
2018-01-27T18:27:18.739Z,72.07
2018-01-27T18:29:46.242Z,76.00
2018-01-27T18:32:13.746Z,74.27
2018-01-27T18:34:41.964Z,88.57
2018-01-27T18:37:10.249Z,97.50
2018-01-27T18:39:37.742Z,101.33
2018-01-27T18:42:06.013Z,85.80
2018-01-27T18:44:33.464Z,82.80
2018-01-27T18:47:00.967Z,71.40
2018-01-27T18:49:28.408Z,80.20
2018-01-27T18:51:55.871Z,82.53
2018-01-27T18:54:23.329Z,68.73
2018-01-27T18:56:50.794Z,58.80
2018-01-27T18:59:18.296Z,65.97
2018-01-27T19:01:45.799Z,60.13
2018-01-27T19:04:14.073Z,69.10
2018-01-27T19:06:41.575Z,63.57
2018-01-27T19:09:09.070Z,59.70
2018-01-27T19:11:36.564Z,66.93
2018-01-27T19:14:04.025Z,78.40
2018-01-27T19:16:31.519Z,69.30
2018-01-27T19:18:59.054Z,79.27
2018-01-27T19:21:26.506Z,77.43
2018-01-27T19:23:54.739Z,76.37
2018-01-27T19:26:22.226Z,63.57
2018-01-27T19:28:49.729Z,75.10
2018-01-27T19:31:17.232Z,67.70
2018-01-27T19:33:44.757Z,76.33
2018-01-27T19:36:12.166Z,69.40
2018-01-27T19:38:39.638Z,62.97
2018-01-27T19:41:07.145Z,68.77
2018-01-27T19:43:35.392Z,59.80
2018-01-27T19:46:02.900Z,85.63
2018-01-27T19:48:30.398Z,82.70
2018-01-27T19:50:57.902Z,114.50
2018-01-27T19:53:25.405Z,110.77
2018-01-27T19:55:53.676Z,92.57
2018-01-27T19:58:21.186Z,88.40
2018-01-27T20:00:48.705Z,83.97
2018-01-27T20:03:16.972Z,93.17
2018-01-27T20:05:44.419Z,74.50
2018-01-27T20:08:11.939Z,68.27
2018-01-27T20:10:39.401Z,74.47
2018-01-27T20:13:07.294Z,70.63
2018-01-27T20:15:35.197Z,72.70
2018-01-27T20:18:02.870Z,73.87
2018-01-27T20:20:31.097Z,60.03
2018-01-27T20:22:58.602Z,71.27
2018-01-27T20:25:26.051Z,62.83
2018-01-27T20:27:53.563Z,65.50
2018-01-27T20:30:21.031Z,64.47
2018-01-27T20:32:48.948Z,70.73
2018-01-27T20:35:17.175Z,63.20
2018-01-27T20:37:44.676Z,88.27
2018-01-27T20:40:12.179Z,83.20
2018-01-27T20:42:39.640Z,74.70
2018-01-27T20:45:07.154Z,71.97
2018-01-27T20:47:35.407Z,84.07
2018-01-27T20:50:02.916Z,117.00
2018-01-27T20:52:30.367Z,104.53
2018-01-27T20:54:57.882Z,107.13
2018-01-27T20:57:25.396Z,119.80
2018-01-27T20:59:52.899Z,88.13
2018-01-27T21:02:20.409Z,96.70
2018-01-27T21:04:47.876Z,85.97
2018-01-27T21:07:15.344Z,90.77
2018-01-27T21:09:42.858Z,82.17
2018-01-27T21:12:10.754Z,69.17
2018-01-27T21:14:38.230Z,76.47
2018-01-27T21:17:05.725Z,85.20
2018-01-27T21:19:33.992Z,70.57
2018-01-27T21:22:01.488Z,91.77
2018-01-27T21:24:28.941Z,74.27
2018-01-27T21:26:56.451Z,74.03
2018-01-27T21:29:23.997Z,90.63
2018-01-27T21:31:51.445Z,73.47
2018-01-27T21:34:18.940Z,78.23
2018-01-27T21:36:46.439Z,72.80
2018-01-27T21:39:13.915Z,71.07
2018-01-27T21:41:41.408Z,74.97
2018-01-27T21:44:08.909Z,77.20
2018-01-27T21:46:36.400Z,65.63
2018-01-27T21:49:03.906Z,66.73
2018-01-27T21:51:31.414Z,60.40
2018-01-27T21:53:58.921Z,69.07
2018-01-27T21:56:26.429Z,63.33
2018-01-27T21:58:53.931Z,58.53
2018-01-27T22:01:22.195Z,47.63
2018-01-27T22:03:50.455Z,66.40
2018-01-27T22:06:17.977Z,79.40
2018-01-27T22:08:45.477Z,73.93
2018-01-27T22:11:12.966Z,74.93
2018-01-27T22:13:40.461Z,71.50
2018-01-27T22:16:07.954Z,69.20
2018-01-27T22:18:35.441Z,76.07
2018-01-27T22:21:03.296Z,72.20
2018-01-27T22:23:30.876Z,60.53
2018-01-27T22:25:58.374Z,69.50
2018-01-27T22:28:25.871Z,63.77
2018-01-27T22:30:54.134Z,60.37
2018-01-27T22:33:22.354Z,63.97
2018-01-27T22:35:49.854Z,69.53
2018-01-27T22:38:17.351Z,60.33
2018-01-27T22:40:44.906Z,66.63
2018-01-27T22:43:12.378Z,61.87
2018-01-27T22:45:39.882Z,56.13
2018-01-27T22:48:07.379Z,61.77
2018-01-27T22:50:34.893Z,67.77
2018-01-27T22:53:02.371Z,48.63
2018-01-27T22:55:30.224Z,53.70
2018-01-27T22:57:58.128Z,59.47
2018-01-27T23:00:25.619Z,57.33
2018-01-27T23:02:53.116Z,67.00
2018-01-27T23:05:21.373Z,66.43
2018-01-27T23:07:48.828Z,70.80
2018-01-27T23:10:16.326Z,75.23
2018-01-27T23:12:43.784Z,62.30
2018-01-27T23:15:11.310Z,62.80
2018-01-27T23:17:38.785Z,58.07
2018-01-27T23:20:07.007Z,62.50
2018-01-27T23:22:34.468Z,58.73
2018-01-27T23:25:01.998Z,71.70
2018-01-27T23:27:29.490Z,60.03
2018-01-27T23:29:56.947Z,53.10
2018-01-27T23:32:24.397Z,72.63
2018-01-27T23:34:51.859Z,58.40
2018-01-27T23:37:19.319Z,61.83
2018-01-27T23:39:46.824Z,62.13
2018-01-27T23:42:15.024Z,59.77
2018-01-27T23:44:42.541Z,60.73
2018-01-27T23:47:10.836Z,59.03
2018-01-27T23:49:38.298Z,61.63
2018-01-27T23:52:06.162Z,58.57
2018-01-27T23:54:33.663Z,58.60
2018-01-27T23:57:01.113Z,66.90
2018-01-27T23:59:28.575Z,67.57
